• Join FlightAware (Why Join?)
  • Login
  • US Flag 
01:47PM EST


 

Airport Tracker/Info


-or-


 

Live Flight TrackerFlight Track Log ✈ JNH7 ✈ 19-Apr-2013 ✈ KFNL - KSNA

Flight Track Log - Related Links

Times and Time Zones

All times are in EDT time to prevent confusion due to time zone crossing. See the JNH7 flight status page for this flight to view local times or setup timezone preferences in your user account.

Time Position Orientation Groundspeed Altitude Reporting Facility
EDT Latitude Longitude Course Direction KTS MPH feet Rate Location/Type
10:24AM 40.4167 -105.0000 180° South 205 236 6,000  Level Denver TRACON
10:25AM 40.3500 -105.0000 180° South 254 292 9,600 2,940 Climbing Denver TRACON
10:26AM 40.2833 -105.0167 191° South 297 342 11,900 1,440 Climbing Denver TRACON
10:27AM 40.2028 -105.0775 210° Southwest 317 365 12,500 1,620 Climbing Denver Center
10:28AM 40.1264 -105.1408 212° Southwest 325 374 15,200 1,740 Climbing Denver Center
10:29AM 40.0406 -105.2131 213° Southwest 361 415 16,100 1,800 Climbing Denver Center
10:30AM 39.9461 -105.2911 212° Southwest 372 428 19,000 2,580 Climbing Denver Center
10:31AM 39.8567 -105.3656 213° Southwest 380 437 21,500 2,460 Climbing Denver Center
10:32AM 39.7544 -105.4528 213° Southwest 407 468 24,100 2,160 Climbing Denver Center
10:33AM 39.6564 -105.5319 212° Southwest 411 473 26,000 1,560 Climbing Denver Center
10:34AM 39.5608 -105.6303 218° Southwest 439 505 27,400 1,320 Climbing Denver Center
10:35AM 39.5083 -105.7683 244° Southwest 431 496 28,800 1,440 Climbing Denver Center
10:36AM 39.4700 -105.9122 251° West 420 483 30,400 1,500 Climbing Denver Center
10:37AM 39.4300 -106.0567 250° West 421 484 32,000 1,560 Climbing Denver Center
10:38AM 39.3889 -106.2025 250° West 414 476 33,700 1,320 Climbing Denver Center
10:39AM 39.3450 -106.3578 250° West 411 473 34,800 960 Climbing Denver Center
10:40AM 39.3089 -106.4892 250° West 407 468 35,800 960 Climbing Denver Center
10:41AM 39.2625 -106.6417 249° West 408 470 36,900 960 Climbing Denver Center
10:42AM 39.2131 -106.7642 243° Southwest 405 466 37,900 480 Climbing Denver Center
10:43AM 39.1303 -106.8942 231° Southwest 420 483 38,000  Climbing Denver Center
10:44AM 39.0578 -107.0075 231° Southwest 427 491 38,000  Level Denver Center
10:45AM 38.9847 -107.1206 230° Southwest 427 491 38,000  Level Denver Center
10:46AM 38.8989 -107.2528 230° Southwest 431 496 38,000  Level Denver Center
10:47AM 38.8269 -107.3633 230° Southwest 423 487 38,000  Level Denver Center
10:48AM 38.7414 -107.4931 230° Southwest 425 489 38,000  Level Denver Center
10:49AM 38.6669 -107.6072 230° Southwest 431 496 38,000  Level Denver Center
10:50AM 38.5819 -107.7386 230° Southwest 429 494 38,000  Level Denver Center
10:51AM 38.5078 -107.8503 230° Southwest 429 494 38,000  Level Denver Center
10:52AM 38.4219 -107.9800 230° Southwest 429 494 38,000  Level Denver Center
10:53AM 38.3481 -108.0908 230° Southwest 429 494 38,000  Level Denver Center
10:54AM 38.2736 -108.2028 230° Southwest 432 497 38,000  Level Denver Center
10:56AM 38.1875 -108.3322 230° Southwest 429 494 38,000  Level Denver Center
10:57AM 38.1117 -108.4442 229° Southwest 433 498 38,000  Level Denver Center
10:58AM 38.0319 -108.5811 234° Southwest 421 484 38,000  Level Denver Center
10:59AM 37.9711 -108.7006 237° Southwest 418 481 38,000  Level Denver Center
11:00AM 37.8992 -108.8428 237° Southwest 427 491 38,000  Level Denver Center
11:01AM 37.8381 -108.9606 237° Southwest 423 487 38,000  Level Denver Center
11:02AM 37.7664 -109.0992 237° Southwest 423 487 38,000  Level Denver Center
11:03AM 37.7056 -109.2186 237° Southwest 423 487 38,000  Level Denver Center
11:04AM 37.6331 -109.3567 236° Southwest 423 487 38,000  Level Denver Center
11:05AM 37.5725 -109.4744 237° Southwest 419 482 38,000  Level Denver Center
11:06AM 37.5111 -109.5936 237° Southwest 423 487 38,000  Level Denver Center
11:07AM 37.4386 -109.7306 236° Southwest 423 487 38,000  Level Denver Center
11:08AM 37.3764 -109.8489 237° Southwest 424 488 38,000  Level Denver Center
11:09AM 37.3047 -109.9850 237° Southwest 421 484 38,000  Level Denver Center
11:10AM 37.2417 -110.1028 236° Southwest 423 487 38,000  Level Denver Center
11:11AM 37.1739 -110.2303 236° Southwest 421 484 38,000  Level Denver Center
11:12AM 37.1092 -110.3519 236° Southwest 419 482 38,000  Level Denver Center
11:13AM 37.0447 -110.4736 236° Southwest 420 483 38,000  Level Denver Center
11:14AM 36.9650 -110.6181 235° Southwest 421 484 38,000  Level Denver Center
11:15AM 36.9011 -110.7386 236° Southwest 417 480 38,000  Level Denver Center
11:16AM 36.8358 -110.8594 236° Southwest 420 483 38,000  Level Denver Center
11:17AM 36.7700 -110.9800 236° Southwest 420 483 38,000  Level Denver Center
11:18AM 36.7067 -111.0997 237° Southwest 416 479 38,000  Level Denver Center
11:19AM 36.6383 -111.2211 235° Southwest 422 486 38,000  Level Denver Center
11:20AM 36.5575 -111.3683 236° Southwest 426 490 38,000  Level Denver Center
11:21AM 36.4900 -111.4903 235° Southwest 427 491 38,000  Level Denver Center
11:22AM 36.4211 -111.6144 235° Southwest 432 497 38,000  Level Denver Center
11:23AM 36.3528 -111.7364 235° Southwest 431 496 38,000  Level Denver Center
11:24AM 36.2844 -111.8581 235° Southwest 431 496 38,000  Level Denver Center
11:25AM 36.2294 -111.9558 235° Southwest 431 496 38,000  Level Los Angeles Center
11:26AM 36.1558 -112.0864 235° Southwest 436 502 38,000  Level Los Angeles Center
11:27AM 36.0886 -112.2078 236° Southwest 431 496 38,000  Level Los Angeles Center
11:28AM 36.0103 -112.3450 235° Southwest 427 491 38,000  Level Los Angeles Center
11:29AM 35.9378 -112.4714 235° Southwest 428 493 38,000  Level Los Angeles Center
11:30AM 35.8692 -112.5928 235° Southwest 431 496 38,000  Level Los Angeles Center
11:31AM 35.8011 -112.7136 235° Southwest 433 498 38,000  Level Los Angeles Center
11:33AM 35.7325 -112.8336 235° Southwest 432 497 38,000  Level Los Angeles Center
11:34AM 35.6475 -112.9764 234° Southwest 429 494 38,000  Level Los Angeles Center
11:35AM 35.5789 -113.0961 235° Southwest 428 493 38,000  Level Los Angeles Center
11:36AM 35.5089 -113.2161 234° Southwest 430 495 38,000  Level Los Angeles Center
11:37AM 35.4436 -113.3300 235° Southwest 437 503 38,000  Level Los Angeles Center
11:38AM 35.3750 -113.4483 235° Southwest 432 497 38,000  Level Los Angeles Center
11:39AM 35.2917 -113.5894 234° Southwest 430 495 38,000  Level Los Angeles Center
11:40AM 35.2222 -113.7067 234° Southwest 429 494 38,000  Level Los Angeles Center
11:41AM 35.1544 -113.8233 235° Southwest 424 488 38,000  Level Los Angeles Center
11:42AM 35.0767 -113.9544 234° Southwest 425 489 38,000  Level Los Angeles Center
11:43AM 35.0056 -114.0736 234° Southwest 431 496 38,000  Level Los Angeles Center
11:44AM 34.9344 -114.1925 234° Southwest 433 498 38,000 -240 Level Los Angeles Center
11:45AM 34.8658 -114.3139 235° Southwest 433 498 37,600 -720 Descending Los Angeles Center
11:46AM 34.8175 -114.4483 246° West 433 498 36,600 -1,080 Descending Los Angeles Center
11:47AM 34.7575 -114.6106 246° West 436 502 35,400 -1,080 Descending Los Angeles Center
11:48AM 34.7050 -114.7483 245° Southwest 446 513 34,400 -720 Descending Los Angeles Center
11:49AM 34.6508 -114.8917 245° Southwest 456 525 34,000 -240 Descending Los Angeles Center
11:50AM 34.5986 -115.0303 245° Southwest 454 522 34,000  Level Los Angeles Center
11:51AM 34.5458 -115.1700 245° Southwest 455 524 34,000  Level Los Angeles Center
11:52AM 34.4925 -115.3081 245° Southwest 455 524 34,000  Level Los Angeles Center
11:53AM 34.4397 -115.4464 245° Southwest 453 521 34,000 -360 Level Los Angeles Center
11:54AM 34.3869 -115.5850 245° Southwest 454 522 33,300 -1,800 Descending Los Angeles Center
11:55AM 34.3222 -115.7519 245° Southwest 458 527 30,300 -2,640 Descending Los Angeles Center
11:56AM 34.2672 -115.8947 245° Southwest 446 513 27,800 -1,620 Descending Los Angeles Center
11:57AM 34.2142 -116.0281 244° Southwest 441 507 27,000 -420 Descending Los Angeles Center
11:58AM 34.1631 -116.1583 245° Southwest 432 497 27,000 -180 Level Los Angeles Center
11:59AM 34.1042 -116.3081 245° Southwest 436 502 26,700 -1,560 Descending Los Angeles Center
12:00PM 34.0514 -116.4414 244° Southwest 442 509 23,800 -2,520 Descending Los Angeles Center
12:02PM 34.0108 -116.5433 244° Southwest 430 495 21,500 -2,760 Descending Los Angeles Center
12:03PM 33.9539 -116.6897 245° Southwest 407 468 18,200 -2,760 Descending Los Angeles Center
12:04PM 33.9061 -116.8078 244° Southwest 397 457 15,800 -2,100 Descending Los Angeles Center
12:05PM 33.8575 -116.9500 248° West 386 444 13,900 -1,380 Descending Los Angeles Center
12:06PM 33.8456 -117.0550 262° West 364 419 13,000 -1,320 Descending Los Angeles Center
12:07PM 33.8272 -117.2039 262° West 374 430 11,200 -1,500 Descending Los Angeles Center
12:08PM 33.8131 -117.3242 262° West 366 421 10,000 -1,080 Descending Los Angeles Center
12:09PM 33.8017 -117.4178 262° West 289 333 9,000 -1,020 Descending Los Angeles Center
12:10PM 33.7925 -117.5056 263° West 268 308 8,000 -780 Descending Los Angeles Center
12:11PM 33.7825 -117.5783 261° West 229 264 7,400 -780 Descending Los Angeles Center
12:12PM 33.7833 -117.6500 271° West 219 252 6,600 -1,080 Descending Southern California TRACON
12:13PM 33.7833 -117.7167 270° West 202 232 5,400 -1,440 Descending Southern California TRACON
12:14PM 33.7833 -117.7833 270° West 180 207 3,800 -1,500 Descending Southern California TRACON
12:16PM 33.7167 -117.8500 220° Southwest 142 163 1,000 -1,260 Descending Southern California TRACON
12:17PM 33.6833 -117.8667 203° Southwest 126 145 100 -900 Descending Southern California TRACON
12:19PM 33.6757 -117.8682 132° Southeast  Level Estimated